createdAt,value
2022-08-04T00:01:58.283Z,22.70
2022-08-04T00:04:38.979Z,22.70
2022-08-04T00:07:14.264Z,22.60
2022-08-04T00:09:52.414Z,22.60
2022-08-04T00:12:22.294Z,22.60
2022-08-04T00:15:02.261Z,22.60
2022-08-04T00:17:44.075Z,22.50
2022-08-04T00:20:18.250Z,22.50
2022-08-04T00:22:47.355Z,22.40
2022-08-04T00:25:15.444Z,22.40
2022-08-04T00:27:42.883Z,22.40
2022-08-04T00:30:12.791Z,22.40
2022-08-04T00:32:41.922Z,22.40
2022-08-04T00:35:10.318Z,22.30
2022-08-04T00:37:42.757Z,22.30
2022-08-04T00:40:24.047Z,22.30
2022-08-04T00:43:03.351Z,22.30
2022-08-04T00:46:10.701Z,22.20
2022-08-04T00:49:13.683Z,22.20
2022-08-04T00:51:41.113Z,22.20
2022-08-04T00:54:26.516Z,22.20
2022-08-04T00:57:33.644Z,22.10
2022-08-04T01:00:10.954Z,22.10
2022-08-04T01:03:03.858Z,22.10
2022-08-04T01:05:45.540Z,22.00
2022-08-04T01:08:33.935Z,22.00
2022-08-04T01:11:12.195Z,22.00
2022-08-04T01:13:39.281Z,22.00
2022-08-04T01:16:08.345Z,21.90
2022-08-04T01:18:50.485Z,21.90
2022-08-04T01:21:29.929Z,21.90
2022-08-04T01:24:26.131Z,21.90
2022-08-04T01:26:58.374Z,21.80
2022-08-04T01:29:46.869Z,21.80
2022-08-04T01:32:14.644Z,21.70
2022-08-04T01:34:54.092Z,21.70
2022-08-04T01:37:50.079Z,21.70
2022-08-04T01:40:17.579Z,21.70
2022-08-04T01:42:46.209Z,21.70
2022-08-04T01:45:14.608Z,21.70
2022-08-04T01:47:55.397Z,21.60
2022-08-04T01:50:23.945Z,21.60
2022-08-04T01:52:53.842Z,21.60
2022-08-04T01:55:21.246Z,21.60
2022-08-04T01:57:50.869Z,21.60
2022-08-04T02:00:23.644Z,21.60
2022-08-04T02:02:51.438Z,21.60
2022-08-04T02:05:21.545Z,21.60
2022-08-04T02:08:21.752Z,21.60
2022-08-04T02:11:02.544Z,21.50
2022-08-04T02:13:54.100Z,21.60
2022-08-04T02:16:41.323Z,21.50
2022-08-04T02:19:27.156Z,21.50
2022-08-04T02:22:03.195Z,21.50
2022-08-04T02:24:32.827Z,21.50
2022-08-04T02:27:03.133Z,21.50
2022-08-04T02:29:36.314Z,21.50
2022-08-04T02:32:05.529Z,21.50
2022-08-04T02:34:42.647Z,21.40
2022-08-04T02:37:18.835Z,21.40
2022-08-04T02:39:49.482Z,21.40
2022-08-04T02:42:17.701Z,21.40
2022-08-04T02:44:50.665Z,21.40
2022-08-04T02:47:21.176Z,21.40
2022-08-04T02:49:51.191Z,21.40
2022-08-04T02:52:21.795Z,21.40
2022-08-04T02:54:53.389Z,21.40
2022-08-04T02:57:24.520Z,21.40
2022-08-04T03:00:14.971Z,21.40
2022-08-04T03:03:06.603Z,21.40
2022-08-04T03:06:01.022Z,21.40
2022-08-04T03:08:49.993Z,21.40
2022-08-04T03:11:37.900Z,21.40
2022-08-04T03:14:14.246Z,21.30
2022-08-04T03:16:53.473Z,21.30
2022-08-04T03:19:51.766Z,21.30
2022-08-04T03:23:06.228Z,21.30
2022-08-04T03:25:59.128Z,21.30
2022-08-04T03:28:29.045Z,21.30
2022-08-04T03:31:08.480Z,21.30
2022-08-04T03:34:03.919Z,21.30
2022-08-04T03:36:43.286Z,21.30
2022-08-04T03:39:16.674Z,21.30
2022-08-04T03:42:04.323Z,21.30
2022-08-04T03:44:40.987Z,21.30
2022-08-04T03:47:44.267Z,21.40
2022-08-04T03:50:21.010Z,21.40
2022-08-04T03:53:20.269Z,21.50
2022-08-04T03:56:25.516Z,21.50
2022-08-04T03:59:23.174Z,21.60
2022-08-04T04:02:29.381Z,21.70
2022-08-04T04:05:18.240Z,21.70
2022-08-04T04:08:11.560Z,21.80
2022-08-04T04:11:07.119Z,21.90
2022-08-04T04:14:03.310Z,21.90
2022-08-04T04:16:52.301Z,21.90
2022-08-04T04:19:58.455Z,22.00
2022-08-04T04:22:47.584Z,22.10
2022-08-04T04:25:24.292Z,22.20
2022-08-04T04:28:46.551Z,22.30
2022-08-04T04:31:51.870Z,22.30
2022-08-04T04:34:46.207Z,22.40
2022-08-04T04:37:48.617Z,22.50
2022-08-04T04:40:19.374Z,22.60
2022-08-04T04:42:55.116Z,22.60
2022-08-04T04:45:36.530Z,22.70
2022-08-04T04:48:17.808Z,22.70
2022-08-04T04:50:56.223Z,22.80
2022-08-04T04:53:30.036Z,22.90
2022-08-04T04:56:14.787Z,22.90
2022-08-04T04:58:43.383Z,23.00
2022-08-04T05:01:35.316Z,23.10
2022-08-04T05:04:10.900Z,23.20
2022-08-04T05:06:55.014Z,23.30
2022-08-04T05:09:48.543Z,23.30
2022-08-04T05:14:32.560Z,23.40
2022-08-04T05:15:15.431Z,23.50
2022-08-04T05:17:48.242Z,23.50
2022-08-04T05:20:22.506Z,23.60
2022-08-04T05:23:01.572Z,23.60
2022-08-04T05:25:58.489Z,23.70
2022-08-04T05:28:36.801Z,23.80
2022-08-04T05:31:11.500Z,23.90
2022-08-04T05:33:43.321Z,23.90
2022-08-04T05:36:29.398Z,23.90
2022-08-04T05:39:07.188Z,24.00
2022-08-04T05:41:45.324Z,24.10
2022-08-04T05:44:19.255Z,24.20
2022-08-04T05:46:53.684Z,24.20
2022-08-04T05:49:27.559Z,24.20
2022-08-04T05:51:59.356Z,24.30
2022-08-04T05:54:30.329Z,24.40
2022-08-04T05:56:59.243Z,24.40
2022-08-04T05:59:27.419Z,24.40
2022-08-04T06:01:58.213Z,24.50
2022-08-04T06:04:32.443Z,24.60
2022-08-04T06:06:59.748Z,24.60
2022-08-04T06:09:27.155Z,24.70
2022-08-04T06:12:02.075Z,24.60
2022-08-04T06:14:40.552Z,24.70
2022-08-04T06:18:32.425Z,24.80
2022-08-04T06:20:19.083Z,24.90
2022-08-04T06:22:48.596Z,25.00
2022-08-04T06:25:20.709Z,25.10
2022-08-04T06:27:49.445Z,25.10
2022-08-04T06:30:19.265Z,25.20
2022-08-04T06:32:49.938Z,25.20
2022-08-04T06:35:18.275Z,25.30
2022-08-04T06:37:47.561Z,25.30
2022-08-04T06:40:31.373Z,25.40
2022-08-04T06:43:02.956Z,25.40
2022-08-04T06:45:31.745Z,25.40
2022-08-04T06:48:01.095Z,25.50
2022-08-04T06:51:24.435Z,25.50
2022-08-04T06:53:16.792Z,25.60
2022-08-04T06:55:48.912Z,25.70
2022-08-04T06:58:17.583Z,25.70
2022-08-04T07:00:47.304Z,25.80
2022-08-04T07:03:17.963Z,25.90
2022-08-04T07:05:48.191Z,25.90
2022-08-04T07:08:15.934Z,26.00
2022-08-04T07:10:44.911Z,26.00
2022-08-04T07:13:13.233Z,26.00
2022-08-04T07:15:45.932Z,26.10
2022-08-04T07:18:13.413Z,26.20
2022-08-04T07:20:45.342Z,26.20
2022-08-04T07:23:17.882Z,26.30
2022-08-04T07:26:00.915Z,26.30
2022-08-04T07:28:41.631Z,26.40
2022-08-04T07:31:33.688Z,26.40
2022-08-04T07:34:20.550Z,26.50
2022-08-04T07:36:52.963Z,26.60
2022-08-04T07:39:28.123Z,26.60
2022-08-04T07:41:59.285Z,26.70
2022-08-04T07:44:31.011Z,26.80
2022-08-04T07:46:58.777Z,26.90
2022-08-04T07:49:57.302Z,26.90
2022-08-04T07:52:16.391Z,26.90
2022-08-04T07:54:44.751Z,27.00
2022-08-04T07:57:19.425Z,26.90
2022-08-04T07:59:59.302Z,27.00
2022-08-04T08:02:27.349Z,27.10
2022-08-04T08:04:54.772Z,27.10
2022-08-04T08:07:22.082Z,27.10
2022-08-04T08:09:49.577Z,27.20
2022-08-04T08:12:36.164Z,27.20
2022-08-04T08:15:10.335Z,27.30
2022-08-04T08:17:58.624Z,27.40
2022-08-04T08:20:29.043Z,27.50
2022-08-04T08:23:00.962Z,27.60
2022-08-04T08:25:30.359Z,27.70
2022-08-04T08:27:57.589Z,27.80
2022-08-04T08:30:31.729Z,27.80
2022-08-04T08:33:09.368Z,27.90
2022-08-04T08:35:57.797Z,28.00
2022-08-04T08:38:55.921Z,28.00
2022-08-04T08:41:51.954Z,28.10
2022-08-04T08:44:59.113Z,28.20
2022-08-04T08:47:58.477Z,28.40
2022-08-04T08:50:39.905Z,28.40
2022-08-04T08:53:49.172Z,28.50
2022-08-04T08:56:35.153Z,28.60
2022-08-04T08:59:15.277Z,28.60
2022-08-04T09:01:54.690Z,28.70
2022-08-04T09:04:46.317Z,28.70
2022-08-04T09:07:38.010Z,28.80
2022-08-04T09:10:34.644Z,28.90
2022-08-04T09:13:10.601Z,28.90
2022-08-04T09:16:13.740Z,29.10
2022-08-04T09:19:00.577Z,29.20
2022-08-04T09:21:48.258Z,29.30
2022-08-04T09:24:35.054Z,29.30
2022-08-04T09:27:16.933Z,29.40
2022-08-04T09:30:05.448Z,29.50
2022-08-04T09:32:38.600Z,29.60
2022-08-04T09:35:48.755Z,29.70
2022-08-04T09:38:23.518Z,29.80
2022-08-04T09:41:49.201Z,29.80
2022-08-04T09:44:49.170Z,29.90
2022-08-04T09:47:45.065Z,29.90
2022-08-04T09:50:36.218Z,29.90
2022-08-04T09:53:16.944Z,30.00
2022-08-04T09:55:54.115Z,30.00
2022-08-04T09:58:37.766Z,30.00
2022-08-04T10:01:09.892Z,30.10
2022-08-04T10:03:43.866Z,30.10
2022-08-04T10:06:29.965Z,30.20
2022-08-04T10:09:21.396Z,30.30
2022-08-04T10:11:58.234Z,30.40
2022-08-04T10:14:42.042Z,30.40
2022-08-04T10:17:19.509Z,30.40
2022-08-04T10:19:56.565Z,30.50
2022-08-04T10:23:09.434Z,30.60
2022-08-04T10:26:07.242Z,30.60
2022-08-04T10:28:53.639Z,30.70
2022-08-04T10:31:26.779Z,30.80
2022-08-04T10:34:19.039Z,30.90
2022-08-04T10:37:04.000Z,30.90
2022-08-04T10:40:27.259Z,31.00
2022-08-04T10:43:03.318Z,31.00
2022-08-04T10:45:41.930Z,31.00
2022-08-04T10:48:34.192Z,31.00
2022-08-04T10:51:21.052Z,31.10
2022-08-04T10:53:57.324Z,31.10
2022-08-04T10:56:46.976Z,31.10
2022-08-04T10:59:20.205Z,31.20
2022-08-04T11:02:02.737Z,31.30
2022-08-04T11:04:46.883Z,31.30
2022-08-04T11:07:16.865Z,31.30
2022-08-04T11:09:45.199Z,31.40
2022-08-04T11:12:28.117Z,31.40
2022-08-04T11:15:21.299Z,31.40
2022-08-04T11:17:55.479Z,31.50
2022-08-04T11:20:36.567Z,31.50
2022-08-04T11:23:10.847Z,31.60
2022-08-04T11:25:58.895Z,31.60
2022-08-04T11:28:35.885Z,31.60
2022-08-04T11:31:11.252Z,31.60
2022-08-04T11:33:47.370Z,31.60
2022-08-04T11:36:22.616Z,31.70
2022-08-04T11:39:18.370Z,31.70
2022-08-04T11:41:53.347Z,31.80
2022-08-04T11:44:43.546Z,31.80
2022-08-04T11:47:34.081Z,31.80
2022-08-04T11:50:08.865Z,31.90
2022-08-04T11:52:40.067Z,31.90
2022-08-04T11:55:11.667Z,32.00
2022-08-04T11:57:39.438Z,32.00
2022-08-04T12:00:10.651Z,31.90
2022-08-04T12:03:09.114Z,31.90
2022-08-04T12:05:44.157Z,32.00
2022-08-04T12:08:54.040Z,31.90
2022-08-04T12:12:00.501Z,32.00
2022-08-04T12:14:43.332Z,31.90
2022-08-04T12:17:11.473Z,31.90
2022-08-04T12:20:04.020Z,32.00
2022-08-04T12:22:50.863Z,32.00
2022-08-04T12:25:33.154Z,32.00
2022-08-04T12:28:06.396Z,32.00
2022-08-04T12:31:02.630Z,32.00
2022-08-04T12:34:04.296Z,32.00
2022-08-04T12:36:55.978Z,32.00
2022-08-04T12:39:26.323Z,32.00
2022-08-04T12:42:07.559Z,32.00
2022-08-04T12:44:38.948Z,32.10
2022-08-04T12:47:27.689Z,32.10
2022-08-04T12:50:04.109Z,32.10
2022-08-04T12:55:31.676Z,32.20
2022-08-04T12:58:01.757Z,32.20
2022-08-04T13:00:40.734Z,32.10
2022-08-04T13:03:20.258Z,32.20
2022-08-04T13:05:49.302Z,32.10
2022-08-04T13:08:20.699Z,32.10
2022-08-04T13:10:50.852Z,32.10
2022-08-04T13:13:20.823Z,32.10
2022-08-04T13:16:12.855Z,32.00
2022-08-04T13:18:47.250Z,32.00
2022-08-04T13:21:49.429Z,32.00
2022-08-04T13:24:21.345Z,32.00
2022-08-04T13:27:03.687Z,32.00
2022-08-04T13:30:00.602Z,32.10
2022-08-04T13:32:26.049Z,32.10
2022-08-04T13:34:56.137Z,32.10
2022-08-04T13:37:27.531Z,32.10
2022-08-04T13:39:57.550Z,32.10
2022-08-04T13:42:26.554Z,32.10
2022-08-04T13:44:58.825Z,32.10
2022-08-04T13:47:30.432Z,32.10
2022-08-04T13:50:21.028Z,32.10
2022-08-04T13:52:52.123Z,32.10
2022-08-04T13:55:23.780Z,32.10
2022-08-04T13:57:55.887Z,32.10
2022-08-04T14:00:29.373Z,32.10
2022-08-04T14:03:23.936Z,32.20
2022-08-04T14:06:10.760Z,32.10
2022-08-04T14:09:02.914Z,32.10
2022-08-04T14:12:09.590Z,32.10
2022-08-04T14:14:51.422Z,32.10
2022-08-04T14:17:30.007Z,32.10
2022-08-04T14:20:04.491Z,32.10
2022-08-04T14:22:34.999Z,32.10
2022-08-04T14:25:15.481Z,32.10
2022-08-04T14:27:44.790Z,32.00
2022-08-04T14:30:27.377Z,32.00
2022-08-04T14:32:59.703Z,32.00
2022-08-04T14:35:57.094Z,32.00
2022-08-04T14:38:24.453Z,32.10
2022-08-04T14:41:00.318Z,32.10
2022-08-04T14:43:29.819Z,32.00
2022-08-04T14:46:06.766Z,32.00
2022-08-04T14:48:42.376Z,32.00
2022-08-04T14:51:16.351Z,32.00
2022-08-04T14:53:49.426Z,32.00
2022-08-04T14:56:30.987Z,32.00
2022-08-04T14:59:11.189Z,32.00
2022-08-04T15:01:40.905Z,32.00
2022-08-04T15:04:10.064Z,32.00
2022-08-04T15:06:37.249Z,32.00
2022-08-04T15:09:09.927Z,32.00
2022-08-04T15:11:42.937Z,32.00
2022-08-04T15:14:18.553Z,31.90
2022-08-04T15:17:04.032Z,31.90
2022-08-04T15:19:34.323Z,31.90
2022-08-04T15:22:03.185Z,31.90
2022-08-04T15:24:30.411Z,31.90
2022-08-04T15:26:59.969Z,31.90
2022-08-04T15:30:00.528Z,32.00
2022-08-04T15:32:23.081Z,32.00
2022-08-04T15:34:51.660Z,31.90
2022-08-04T15:37:31.256Z,31.90
2022-08-04T15:40:04.521Z,31.90
2022-08-04T15:43:03.527Z,32.00
2022-08-04T15:46:41.753Z,32.00
2022-08-04T15:48:40.285Z,32.10
2022-08-04T15:51:14.640Z,32.20
2022-08-04T15:54:01.410Z,32.50
2022-08-04T15:56:32.101Z,32.90
2022-08-04T15:58:59.384Z,33.70
2022-08-04T16:01:27.892Z,34.30
2022-08-04T16:03:59.852Z,34.90
2022-08-04T16:06:28.859Z,35.30
2022-08-04T16:09:01.813Z,35.80
2022-08-04T16:11:32.108Z,36.10
2022-08-04T16:13:59.686Z,36.40
2022-08-04T16:16:52.006Z,36.80
2022-08-04T16:19:55.781Z,37.10
2022-08-04T16:22:40.526Z,37.40
2022-08-04T16:25:09.671Z,37.80
2022-08-04T16:27:45.675Z,38.10
2022-08-04T16:30:15.195Z,38.30
2022-08-04T16:32:45.072Z,38.50
2022-08-04T16:35:27.001Z,38.60
2022-08-04T16:38:14.362Z,38.70
2022-08-04T16:40:45.732Z,38.80
2022-08-04T16:43:16.084Z,39.10
2022-08-04T16:45:48.515Z,39.30
2022-08-04T16:48:23.644Z,39.40
2022-08-04T16:51:14.632Z,39.50
2022-08-04T16:53:57.726Z,39.60
2022-08-04T16:56:34.374Z,38.40
2022-08-04T16:59:12.836Z,37.10
2022-08-04T17:01:48.562Z,36.00
2022-08-04T17:04:17.597Z,35.30
2022-08-04T17:06:49.530Z,34.60
2022-08-04T17:09:23.345Z,34.10
2022-08-04T17:11:54.183Z,33.70
2022-08-04T17:14:26.881Z,33.30
2022-08-04T17:16:57.070Z,33.10
2022-08-04T17:19:26.307Z,32.90
2022-08-04T17:22:07.382Z,32.60
2022-08-04T17:24:41.376Z,32.40
2022-08-04T17:28:09.180Z,32.30
2022-08-04T17:29:58.961Z,32.10
2022-08-04T17:32:26.706Z,31.90
2022-08-04T17:34:57.391Z,31.80
2022-08-04T17:37:52.800Z,31.60
2022-08-04T17:40:17.897Z,31.50
2022-08-04T17:44:03.505Z,31.40
2022-08-04T17:46:32.325Z,31.20
2022-08-04T17:49:05.814Z,31.10
2022-08-04T17:54:37.388Z,30.80
2022-08-04T17:57:25.078Z,30.70
2022-08-04T17:59:59.496Z,30.50
2022-08-04T18:05:54.107Z,30.30
2022-08-04T18:08:35.588Z,30.20
2022-08-04T18:11:03.352Z,30.00
2022-08-04T18:13:42.398Z,29.90
2022-08-04T18:16:22.059Z,29.80
2022-08-04T18:19:17.299Z,29.70
2022-08-04T18:22:00.351Z,29.50
2022-08-04T18:24:56.223Z,29.40
2022-08-04T18:27:30.026Z,29.30
2022-08-04T18:30:28.660Z,29.20
2022-08-04T18:33:24.211Z,29.10
2022-08-04T18:36:33.611Z,29.00
2022-08-04T18:38:26.549Z,28.80
2022-08-04T18:41:03.664Z,28.70
2022-08-04T18:43:56.871Z,28.60
2022-08-04T18:46:38.004Z,28.50
2022-08-04T18:49:10.894Z,28.40
2022-08-04T18:51:58.377Z,28.30
2022-08-04T18:54:32.351Z,28.20
2022-08-04T18:57:24.678Z,28.20
2022-08-04T18:59:47.639Z,28.10
2022-08-04T19:02:17.729Z,28.00
2022-08-04T19:04:49.575Z,27.90
2022-08-04T19:07:29.812Z,27.80
2022-08-04T19:09:59.541Z,27.70
2022-08-04T19:12:30.115Z,27.70
2022-08-04T19:15:08.410Z,27.60
2022-08-04T19:17:53.905Z,27.50
2022-08-04T19:20:26.656Z,27.50
2022-08-04T19:26:01.261Z,27.40
2022-08-04T19:28:39.697Z,27.30
2022-08-04T19:31:08.525Z,27.20
2022-08-04T19:33:58.645Z,27.20
2022-08-04T19:36:29.643Z,27.10
2022-08-04T19:38:59.404Z,27.10
2022-08-04T19:41:30.591Z,27.00
2022-08-04T19:43:59.118Z,26.90
2022-08-04T19:46:29.116Z,26.90
2022-08-04T19:48:59.412Z,26.90
2022-08-04T19:51:29.224Z,26.80
2022-08-04T19:54:02.711Z,26.80
2022-08-04T19:56:42.778Z,26.70
2022-08-04T19:59:11.215Z,26.60
2022-08-04T20:01:45.134Z,26.60
2022-08-04T20:04:14.838Z,26.60
2022-08-04T20:06:43.185Z,26.50
2022-08-04T20:09:24.697Z,26.40
2022-08-04T20:11:57.595Z,26.40
2022-08-04T20:14:31.218Z,26.40
2022-08-04T20:17:09.900Z,26.40
2022-08-04T20:19:38.986Z,26.30
2022-08-04T20:22:50.543Z,26.30
2022-08-04T20:25:01.019Z,26.20
2022-08-04T20:27:51.605Z,26.20
2022-08-04T20:30:28.841Z,26.20
2022-08-04T20:32:57.079Z,26.20
2022-08-04T20:35:26.968Z,26.10
2022-08-04T20:37:59.999Z,26.10
2022-08-04T20:40:28.081Z,26.10
2022-08-04T20:42:57.317Z,26.00
2022-08-04T20:45:55.883Z,26.00
2022-08-04T20:48:13.654Z,26.00
2022-08-04T20:50:40.824Z,25.90
2022-08-04T20:53:16.634Z,25.90
2022-08-04T20:55:55.255Z,25.80
2022-08-04T20:58:27.931Z,25.80
2022-08-04T21:00:57.479Z,25.80
2022-08-04T21:03:49.246Z,25.80
2022-08-04T21:06:12.499Z,25.70
2022-08-04T21:11:32.695Z,25.70
2022-08-04T21:14:08.004Z,25.70
2022-08-04T21:16:55.905Z,25.60
2022-08-04T21:19:24.944Z,25.60
2022-08-04T21:21:57.426Z,25.50
2022-08-04T21:24:26.998Z,25.50
2022-08-04T21:27:00.621Z,25.50
2022-08-04T21:32:18.032Z,25.50
2022-08-04T21:34:45.527Z,25.40
2022-08-04T21:37:22.719Z,25.40
2022-08-04T21:40:15.359Z,25.40
2022-08-04T21:42:50.135Z,25.40
2022-08-04T21:45:20.952Z,25.40
2022-08-04T21:47:49.957Z,25.40
2022-08-04T21:50:20.381Z,25.30
2022-08-04T21:52:49.169Z,25.30
2022-08-04T21:55:17.173Z,25.30
2022-08-04T21:57:46.907Z,25.30
2022-08-04T22:00:19.636Z,25.20
2022-08-04T22:02:53.202Z,25.20
2022-08-04T22:05:21.862Z,25.20
2022-08-04T22:07:51.537Z,25.20
2022-08-04T22:10:32.366Z,25.20
2022-08-04T22:13:06.957Z,25.10
2022-08-04T22:16:05.207Z,25.10
2022-08-04T22:18:24.631Z,25.10
2022-08-04T22:20:55.132Z,25.00
2022-08-04T22:23:25.194Z,25.00
2022-08-04T22:25:55.661Z,25.00
2022-08-04T22:28:28.432Z,25.00
2022-08-04T22:30:57.787Z,25.00
2022-08-04T22:33:54.448Z,25.00
2022-08-04T22:36:15.508Z,25.00
2022-08-04T22:38:50.787Z,24.90
2022-08-04T22:41:33.794Z,24.90
2022-08-04T22:44:16.426Z,24.90
2022-08-04T22:46:43.780Z,24.80
2022-08-04T22:49:12.986Z,24.80
2022-08-04T22:51:41.673Z,24.80
2022-08-04T22:54:19.615Z,24.80
2022-08-04T22:56:46.866Z,24.80
2022-08-04T22:59:16.983Z,24.80
2022-08-04T23:01:58.327Z,24.70
2022-08-04T23:04:30.198Z,24.70
2022-08-04T23:06:57.561Z,24.70
2022-08-04T23:09:26.961Z,24.70
2022-08-04T23:12:24.574Z,24.70
2022-08-04T23:14:58.553Z,24.70
2022-08-04T23:17:28.143Z,24.60
2022-08-04T23:19:59.920Z,24.60
2022-08-04T23:22:41.942Z,24.60
2022-08-04T23:25:16.995Z,24.70
2022-08-04T23:27:51.721Z,24.70
2022-08-04T23:30:29.761Z,24.70
2022-08-04T23:32:58.282Z,24.70
2022-08-04T23:35:25.967Z,24.70
2022-08-04T23:37:57.361Z,24.70
2022-08-04T23:40:33.337Z,24.60
2022-08-04T23:43:17.522Z,24.70
2022-08-04T23:46:07.831Z,24.60
2022-08-04T23:48:36.909Z,24.60
2022-08-04T23:51:13.949Z,24.60
2022-08-04T23:54:03.514Z,24.50
2022-08-04T23:56:34.940Z,24.50
2022-08-04T23:59:03.453Z,24.40
